Morrow, Arkansas
Current Conditions -  °F | °C
As of 8:53 PM on Saturday 27 Dec 2014 (Local Time) from KFYV Reporting Station
Overcast Overcast  
Wind Chill: 24°   Ceiling: 1000
Heat Index: 30°   Visibility: 10mi
Dew Point: 28°   Wind: 6mph
Humidity: 92%   Direction: 340°NNW
Pressure: 30.26"   Gusts: NA
Location:  35.86°N, 94.44°W
Report Text: KFYV 280253Z 34005KT 10SM OVC010 M01/M02 A3026 RMK AO2 SLP254 T10111022 51006
Loading
Personal Weather Stations






























Interactive Weather Map New forecast layout! Learn more

10-Day Weather Forecast

Advertisements
Track Severe Weather on mobile